sensor_id;sensor_type;location;lat;lon;timestamp;pressure;altitude;pressure_sealevel;temperature;humidity
28312;BME280;15572;48.810;9.148;2023-05-08T00:00:22;98395.00;;;14.92;100.00
28312;BME280;15572;48.810;9.148;2023-05-08T00:05:20;98386.00;;;14.92;100.00
28312;BME280;15572;48.810;9.148;2023-05-08T00:10:17;98387.50;;;14.88;100.00
28312;BME280;15572;48.810;9.148;2023-05-08T00:15:13;98391.06;;;14.88;100.00
28312;BME280;15572;48.810;9.148;2023-05-08T00:20:11;98392.75;;;14.89;100.00
28312;BME280;15572;48.810;9.148;2023-05-08T00:25:09;98391.91;;;14.89;100.00
28312;BME280;15572;48.810;9.148;2023-05-08T00:30:06;98396.72;;;14.87;100.00
28312;BME280;15572;48.810;9.148;2023-05-08T00:35:03;98397.19;;;14.84;100.00
28312;BME280;15572;48.810;9.148;2023-05-08T00:40:00;98398.69;;;14.80;100.00
28312;BME280;15572;48.810;9.148;2023-05-08T00:44:58;98396.75;;;14.80;100.00
28312;BME280;15572;48.810;9.148;2023-05-08T00:49:54;98398.44;;;14.81;100.00
28312;BME280;15572;48.810;9.148;2023-05-08T00:54:51;98399.50;;;14.80;100.00
28312;BME280;15572;48.810;9.148;2023-05-08T00:59:49;98412.06;;;14.81;100.00
28312;BME280;15572;48.810;9.148;2023-05-08T01:04:47;98408.75;;;14.79;100.00
28312;BME280;15572;48.810;9.148;2023-05-08T01:09:43;98408.09;;;14.77;100.00
28312;BME280;15572;48.810;9.148;2023-05-08T01:14:55;98406.66;;;14.74;100.00
28312;BME280;15572;48.810;9.148;2023-05-08T01:20:03;98417.81;;;14.66;100.00
28312;BME280;15572;48.810;9.148;2023-05-08T01:25:17;98409.88;;;14.58;100.00
28312;BME280;15572;48.810;9.148;2023-05-08T01:30:50;98415.97;;;14.54;100.00
28312;BME280;15572;48.810;9.148;2023-05-08T01:35:58;98411.81;;;14.51;100.00
28312;BME280;15572;48.810;9.148;2023-05-08T01:41:02;98424.38;;;14.52;100.00
28312;BME280;15572;48.810;9.148;2023-05-08T01:46:05;98415.19;;;14.47;100.00
28312;BME280;15572;48.810;9.148;2023-05-08T01:51:11;98421.50;;;14.41;100.00
28312;BME280;15572;48.810;9.148;2023-05-08T01:56:13;98417.53;;;14.37;100.00
28312;BME280;15572;48.810;9.148;2023-05-08T02:01:12;98424.19;;;14.34;100.00
28312;BME280;15572;48.810;9.148;2023-05-08T02:06:12;98421.69;;;14.32;100.00
28312;BME280;15572;48.810;9.148;2023-05-08T02:11:12;98425.25;;;14.33;100.00
28312;BME280;15572;48.810;9.148;2023-05-08T02:16:10;98429.00;;;14.32;100.00
28312;BME280;15572;48.810;9.148;2023-05-08T02:21:08;98428.59;;;14.35;100.00
28312;BME280;15572;48.810;9.148;2023-05-08T02:26:08;98425.25;;;14.40;100.00
28312;BME280;15572;48.810;9.148;2023-05-08T02:31:06;98434.91;;;14.42;100.00
28312;BME280;15572;48.810;9.148;2023-05-08T02:36:03;98425.66;;;14.43;100.00
28312;BME280;15572;48.810;9.148;2023-05-08T02:41:02;98434.06;;;14.42;100.00
28312;BME280;15572;48.810;9.148;2023-05-08T02:46:09;98438.44;;;14.43;100.00
28312;BME280;15572;48.810;9.148;2023-05-08T02:51:14;98442.63;;;14.45;100.00
28312;BME280;15572;48.810;9.148;2023-05-08T02:56:25;98440.28;;;14.49;100.00
28312;BME280;15572;48.810;9.148;2023-05-08T03:01:32;98444.28;;;14.53;100.00
28312;BME280;15572;48.810;9.148;2023-05-08T03:06:35;98435.28;;;14.52;100.00
28312;BME280;15572;48.810;9.148;2023-05-08T03:11:38;98433.59;;;14.51;100.00
28312;BME280;15572;48.810;9.148;2023-05-08T03:16:38;98428.34;;;14.50;100.00
28312;BME280;15572;48.810;9.148;2023-05-08T03:21:37;98433.81;;;14.50;100.00
28312;BME280;15572;48.810;9.148;2023-05-08T03:26:36;98425.25;;;14.46;100.00
28312;BME280;15572;48.810;9.148;2023-05-08T03:31:33;98441.16;;;14.43;100.00
28312;BME280;15572;48.810;9.148;2023-05-08T03:36:32;98433.81;;;14.43;100.00
28312;BME280;15572;48.810;9.148;2023-05-08T03:41:29;98421.06;;;14.37;100.00
28312;BME280;15572;48.810;9.148;2023-05-08T03:46:26;98432.16;;;14.36;100.00
28312;BME280;15572;48.810;9.148;2023-05-08T03:51:22;98430.06;;;14.38;100.00
28312;BME280;15572;48.810;9.148;2023-05-08T03:56:21;98436.59;;;14.37;100.00
28312;BME280;15572;48.810;9.148;2023-05-08T04:01:21;98432.38;;;14.34;100.00
28312;BME280;15572;48.810;9.148;2023-05-08T04:06:24;98437.41;;;14.30;100.00
28312;BME280;15572;48.810;9.148;2023-05-08T04:11:40;98442.22;;;14.35;100.00
28312;BME280;15572;48.810;9.148;2023-05-08T04:16:39;98440.75;;;14.39;100.00
28312;BME280;15572;48.810;9.148;2023-05-08T04:21:42;98457.09;;;14.39;100.00
28312;BME280;15572;48.810;9.148;2023-05-08T04:26:41;98455.00;;;14.41;100.00
28312;BME280;15572;48.810;9.148;2023-05-08T04:31:39;98461.06;;;14.43;100.00
28312;BME280;15572;48.810;9.148;2023-05-08T04:36:35;98463.38;;;14.46;100.00
28312;BME280;15572;48.810;9.148;2023-05-08T04:41:32;98468.16;;;14.51;100.00
28312;BME280;15572;48.810;9.148;2023-05-08T04:46:30;98467.97;;;14.52;100.00
28312;BME280;15572;48.810;9.148;2023-05-08T04:51:27;98470.44;;;14.54;100.00
28312;BME280;15572;48.810;9.148;2023-05-08T04:56:23;98475.25;;;14.58;100.00
28312;BME280;15572;48.810;9.148;2023-05-08T05:01:21;98478.81;;;14.59;100.00
28312;BME280;15572;48.810;9.148;2023-05-08T05:06:18;98484.69;;;14.62;100.00
28312;BME280;15572;48.810;9.148;2023-05-08T05:11:15;98490.53;;;14.66;100.00
28312;BME280;15572;48.810;9.148;2023-05-08T05:16:11;98494.50;;;14.70;100.00
28312;BME280;15572;48.810;9.148;2023-05-08T05:21:08;98496.81;;;14.73;100.00
28312;BME280;15572;48.810;9.148;2023-05-08T05:26:07;98494.69;;;14.75;100.00
28312;BME280;15572;48.810;9.148;2023-05-08T05:31:03;98502.44;;;14.78;100.00
28312;BME280;15572;48.810;9.148;2023-05-08T05:36:00;98496.19;;;14.64;100.00
28312;BME280;15572;48.810;9.148;2023-05-08T05:40:56;98507.94;;;14.65;100.00
28312;BME280;15572;48.810;9.148;2023-05-08T05:45:54;98502.91;;;14.68;100.00
28312;BME280;15572;48.810;9.148;2023-05-08T05:50:51;98506.47;;;14.69;100.00
28312;BME280;15572;48.810;9.148;2023-05-08T05:55:47;98506.69;;;14.67;100.00
28312;BME280;15572;48.810;9.148;2023-05-08T06:00:44;98510.06;;;14.63;100.00
28312;BME280;15572;48.810;9.148;2023-05-08T06:05:45;98502.28;;;14.60;100.00
28312;BME280;15572;48.810;9.148;2023-05-08T06:10:42;98510.28;;;14.55;100.00
28312;BME280;15572;48.810;9.148;2023-05-08T06:15:38;98515.72;;;14.48;100.00
28312;BME280;15572;48.810;9.148;2023-05-08T06:20:36;98513.03;;;14.42;100.00
28312;BME280;15572;48.810;9.148;2023-05-08T06:25:34;98521.81;;;14.44;100.00
28312;BME280;15572;48.810;9.148;2023-05-08T06:30:30;98515.97;;;14.47;100.00
28312;BME280;15572;48.810;9.148;2023-05-08T06:35:26;98531.22;;;14.48;100.00
28312;BME280;15572;48.810;9.148;2023-05-08T06:40:23;98526.22;;;14.45;100.00
28312;BME280;15572;48.810;9.148;2023-05-08T06:45:21;98526.22;;;14.45;100.00
28312;BME280;15572;48.810;9.148;2023-05-08T06:50:18;98531.66;;;14.45;100.00
28312;BME280;15572;48.810;9.148;2023-05-08T06:55:14;98526.63;;;14.48;100.00
28312;BME280;15572;48.810;9.148;2023-05-08T07:00:12;98529.97;;;14.50;100.00
28312;BME280;15572;48.810;9.148;2023-05-08T07:05:10;98531.22;;;14.54;100.00
28312;BME280;15572;48.810;9.148;2023-05-08T07:10:07;98528.28;;;14.56;100.00
28312;BME280;15572;48.810;9.148;2023-05-08T07:15:04;98537.31;;;14.50;100.00
28312;BME280;15572;48.810;9.148;2023-05-08T07:20:01;98539.63;;;14.53;100.00
28312;BME280;15572;48.810;9.148;2023-05-08T07:24:59;98537.50;;;14.55;100.00
28312;BME280;15572;48.810;9.148;2023-05-08T07:29:55;98538.75;;;14.65;100.00
28312;BME280;15572;48.810;9.148;2023-05-08T07:34:53;98539.75;;;14.78;100.00
28312;BME280;15572;48.810;9.148;2023-05-08T07:39:49;98546.16;;;14.96;100.00
28312;BME280;15572;48.810;9.148;2023-05-08T07:44:47;98547.00;;;14.97;100.00
28312;BME280;15572;48.810;9.148;2023-05-08T07:49:43;98553.50;;;15.02;100.00
28312;BME280;15572;48.810;9.148;2023-05-08T07:54:40;98548.66;;;15.11;100.00
28312;BME280;15572;48.810;9.148;2023-05-08T07:59:36;98558.25;;;15.13;100.00
28312;BME280;15572;48.810;9.148;2023-05-08T08:04:34;98554.94;;;15.11;100.00
28312;BME280;15572;48.810;9.148;2023-05-08T08:09:31;98555.81;;;15.05;100.00
28312;BME280;15572;48.810;9.148;2023-05-08T08:14:27;98555.44;;;14.89;100.00
28312;BME280;15572;48.810;9.148;2023-05-08T08:19:23;98561.72;;;14.89;100.00
28312;BME280;15572;48.810;9.148;2023-05-08T08:24:21;98561.09;;;14.87;100.00
28312;BME280;15572;48.810;9.148;2023-05-08T08:29:18;98563.59;;;14.95;100.00
28312;BME280;15572;48.810;9.148;2023-05-08T08:34:14;98562.66;;;15.14;100.00
28312;BME280;15572;48.810;9.148;2023-05-08T08:39:11;98566.75;;;15.37;100.00
28312;BME280;15572;48.810;9.148;2023-05-08T08:44:09;98563.38;;;15.41;100.00
28312;BME280;15572;48.810;9.148;2023-05-08T08:49:07;98565.88;;;15.43;100.00
28312;BME280;15572;48.810;9.148;2023-05-08T08:54:08;98564.63;;;15.39;100.00
28312;BME280;15572;48.810;9.148;2023-05-08T08:59:06;98577.03;;;15.35;100.00
28312;BME280;15572;48.810;9.148;2023-05-08T09:04:05;98566.56;;;15.32;100.00
28312;BME280;15572;48.810;9.148;2023-05-08T09:09:03;98574.91;;;15.43;100.00
28312;BME280;15572;48.810;9.148;2023-05-08T09:13:59;98573.63;;;15.46;100.00
28312;BME280;15572;48.810;9.148;2023-05-08T09:18:57;98569.38;;;15.63;100.00
28312;BME280;15572;48.810;9.148;2023-05-08T09:23:56;98572.66;;;15.72;100.00
28312;BME280;15572;48.810;9.148;2023-05-08T09:29:06;98575.09;;;15.86;100.00
28312;BME280;15572;48.810;9.148;2023-05-08T09:34:05;98570.22;;;15.88;100.00
28312;BME280;15572;48.810;9.148;2023-05-08T09:39:03;98563.72;;;15.89;100.00
28312;BME280;15572;48.810;9.148;2023-05-08T09:44:01;98572.16;;;16.13;100.00
28312;BME280;15572;48.810;9.148;2023-05-08T09:49:00;98571.59;;;16.29;100.00
28312;BME280;15572;48.810;9.148;2023-05-08T09:53:58;98578.13;;;16.46;100.00
28312;BME280;15572;48.810;9.148;2023-05-08T09:58:56;98581.94;;;16.45;100.00
28312;BME280;15572;48.810;9.148;2023-05-08T10:03:52;98578.75;;;16.48;100.00
28312;BME280;15572;48.810;9.148;2023-05-08T10:09:05;98578.91;;;16.53;100.00
28312;BME280;15572;48.810;9.148;2023-05-08T10:14:03;98579.19;;;16.70;100.00
28312;BME280;15572;48.810;9.148;2023-05-08T10:19:00;98570.78;;;16.90;100.00
28312;BME280;15572;48.810;9.148;2023-05-08T10:24:04;98571.69;;;17.02;100.00
28312;BME280;15572;48.810;9.148;2023-05-08T10:29:06;98586.31;;;17.25;100.00
28312;BME280;15572;48.810;9.148;2023-05-08T10:34:03;98577.88;;;17.27;100.00
28312;BME280;15572;48.810;9.148;2023-05-08T10:39:04;98572.56;;;17.32;100.00
28312;BME280;15572;48.810;9.148;2023-05-08T10:44:00;98570.56;;;17.39;100.00
28312;BME280;15572;48.810;9.148;2023-05-08T10:49:11;98573.19;;;17.16;100.00
28312;BME280;15572;48.810;9.148;2023-05-08T10:54:14;98568.94;;;17.20;100.00
28312;BME280;15572;48.810;9.148;2023-05-08T10:59:18;98567.81;;;17.09;100.00
28312;BME280;15572;48.810;9.148;2023-05-08T11:04:20;98567.56;;;17.11;100.00
28312;BME280;15572;48.810;9.148;2023-05-08T11:09:21;98558.78;;;17.39;100.00
28312;BME280;15572;48.810;9.148;2023-05-08T11:14:18;98562.44;;;17.81;100.00
28312;BME280;15572;48.810;9.148;2023-05-08T11:19:17;98552.94;;;18.06;100.00
28312;BME280;15572;48.810;9.148;2023-05-08T11:24:15;98557.13;;;18.32;100.00
28312;BME280;15572;48.810;9.148;2023-05-08T11:29:15;98542.97;;;18.24;100.00
28312;BME280;15572;48.810;9.148;2023-05-08T11:34:45;98549.28;;;18.36;100.00
28312;BME280;15572;48.810;9.148;2023-05-08T11:39:43;98542.53;;;18.73;100.00
28312;BME280;15572;48.810;9.148;2023-05-08T11:44:39;98540.00;;;19.23;100.00
28312;BME280;15572;48.810;9.148;2023-05-08T11:49:36;98548.47;;;19.62;100.00
28312;BME280;15572;48.810;9.148;2023-05-08T11:54:32;98539.84;;;20.32;100.00
28312;BME280;15572;48.810;9.148;2023-05-08T11:59:34;98542.47;;;20.60;100.00
28312;BME280;15572;48.810;9.148;2023-05-08T12:04:30;98540.63;;;20.15;100.00
28312;BME280;15572;48.810;9.148;2023-05-08T12:09:37;98543.03;;;19.79;100.00
28312;BME280;15572;48.810;9.148;2023-05-08T12:14:35;98533.50;;;20.86;100.00
28312;BME280;15572;48.810;9.148;2023-05-08T12:19:32;98533.75;;;21.07;100.00
28312;BME280;15572;48.810;9.148;2023-05-08T12:24:29;98533.06;;;21.38;100.00
28312;BME280;15572;48.810;9.148;2023-05-08T12:29:25;98527.00;;;21.36;100.00
28312;BME280;15572;48.810;9.148;2023-05-08T12:34:23;98530.22;;;21.11;100.00
28312;BME280;15572;48.810;9.148;2023-05-08T12:39:20;98532.41;;;20.87;100.00
28312;BME280;15572;48.810;9.148;2023-05-08T12:44:17;98534.53;;;20.64;100.00
28312;BME280;15572;48.810;9.148;2023-05-08T12:49:22;98525.09;;;20.38;100.00
28312;BME280;15572;48.810;9.148;2023-05-08T12:54:30;98529.72;;;20.21;100.00
28312;BME280;15572;48.810;9.148;2023-05-08T12:59:27;98538.19;;;19.69;100.00
28312;BME280;15572;48.810;9.148;2023-05-08T13:04:24;98537.59;;;18.75;100.00
28312;BME280;15572;48.810;9.148;2023-05-08T13:09:22;98525.81;;;18.28;100.00
28312;BME280;15572;48.810;9.148;2023-05-08T13:14:18;98521.28;;;17.99;100.00
28312;BME280;15572;48.810;9.148;2023-05-08T13:19:15;98522.41;;;17.80;100.00
28312;BME280;15572;48.810;9.148;2023-05-08T13:24:12;98529.47;;;17.87;100.00
28312;BME280;15572;48.810;9.148;2023-05-08T13:29:10;98530.03;;;17.78;100.00
28312;BME280;15572;48.810;9.148;2023-05-08T13:34:06;98523.00;;;17.70;100.00
28312;BME280;15572;48.810;9.148;2023-05-08T13:39:04;98524.41;;;17.43;100.00
28312;BME280;15572;48.810;9.148;2023-05-08T13:44:01;98514.81;;;17.22;100.00
28312;BME280;15572;48.810;9.148;2023-05-08T13:48:59;98510.75;;;17.13;100.00
28312;BME280;15572;48.810;9.148;2023-05-08T13:53:55;98499.53;;;17.03;100.00
28312;BME280;15572;48.810;9.148;2023-05-08T13:58:52;98495.13;;;17.02;100.00
28312;BME280;15572;48.810;9.148;2023-05-08T14:03:48;98494.00;;;16.91;100.00
28312;BME280;15572;48.810;9.148;2023-05-08T14:08:46;98508.66;;;16.97;100.00
28312;BME280;15572;48.810;9.148;2023-05-08T14:13:42;98512.75;;;16.88;100.00
28312;BME280;15572;48.810;9.148;2023-05-08T14:18:39;98501.22;;;16.67;100.00
28312;BME280;15572;48.810;9.148;2023-05-08T14:23:35;98502.53;;;16.58;100.00
28312;BME280;15572;48.810;9.148;2023-05-08T14:28:34;98501.03;;;16.44;100.00
28312;BME280;15572;48.810;9.148;2023-05-08T14:33:30;98502.00;;;16.31;100.00
28312;BME280;15572;48.810;9.148;2023-05-08T14:38:27;98502.84;;;16.32;100.00
28312;BME280;15572;48.810;9.148;2023-05-08T14:43:23;98506.72;;;16.42;100.00
28312;BME280;15572;48.810;9.148;2023-05-08T14:48:21;98510.38;;;16.55;100.00
28312;BME280;15572;48.810;9.148;2023-05-08T14:53:18;98508.13;;;16.70;100.00
28312;BME280;15572;48.810;9.148;2023-05-08T14:58:14;98508.06;;;16.76;100.00
28312;BME280;15572;48.810;9.148;2023-05-08T15:03:11;98503.66;;;16.75;100.00
28312;BME280;15572;48.810;9.148;2023-05-08T15:08:09;98495.66;;;16.74;100.00
28312;BME280;15572;48.810;9.148;2023-05-08T15:13:05;98496.97;;;16.71;100.00
28312;BME280;15572;48.810;9.148;2023-05-08T15:18:02;98494.97;;;16.78;100.00
28312;BME280;15572;48.810;9.148;2023-05-08T15:22:58;98499.75;;;17.01;100.00
28312;BME280;15572;48.810;9.148;2023-05-08T15:27:56;98502.13;;;17.27;100.00
28312;BME280;15572;48.810;9.148;2023-05-08T15:32:53;98504.06;;;17.39;100.00
28312;BME280;15572;48.810;9.148;2023-05-08T15:37:50;98500.75;;;17.48;100.00
28312;BME280;15572;48.810;9.148;2023-05-08T15:42:46;98497.28;;;17.71;100.00
28312;BME280;15572;48.810;9.148;2023-05-08T15:47:44;98493.28;;;17.97;100.00
28312;BME280;15572;48.810;9.148;2023-05-08T15:52:40;98498.03;;;18.01;100.00
28312;BME280;15572;48.810;9.148;2023-05-08T15:57:37;98499.59;;;17.97;100.00
28312;BME280;15572;48.810;9.148;2023-05-08T16:02:33;98503.84;;;17.82;100.00
28312;BME280;15572;48.810;9.148;2023-05-08T16:07:31;98506.00;;;17.68;100.00
28312;BME280;15572;48.810;9.148;2023-05-08T16:12:27;98503.41;;;17.55;100.00
28312;BME280;15572;48.810;9.148;2023-05-08T16:17:24;98507.06;;;17.49;100.00
28312;BME280;15572;48.810;9.148;2023-05-08T16:22:20;98510.47;;;17.33;100.00
28312;BME280;15572;48.810;9.148;2023-05-08T16:27:19;98512.41;;;17.14;100.00
28312;BME280;15572;48.810;9.148;2023-05-08T16:32:15;98516.28;;;17.06;100.00
28312;BME280;15572;48.810;9.148;2023-05-08T16:37:12;98513.63;;;17.00;100.00
28312;BME280;15572;48.810;9.148;2023-05-08T16:42:08;98508.03;;;16.95;100.00
28312;BME280;15572;48.810;9.148;2023-05-08T16:47:06;98501.34;;;16.91;100.00
28312;BME280;15572;48.810;9.148;2023-05-08T16:52:02;98506.69;;;16.86;100.00
28312;BME280;15572;48.810;9.148;2023-05-08T16:56:59;98501.69;;;16.82;100.00
28312;BME280;15572;48.810;9.148;2023-05-08T17:01:55;98511.94;;;16.87;100.00
28312;BME280;15572;48.810;9.148;2023-05-08T17:06:53;98509.69;;;16.77;100.00
28312;BME280;15572;48.810;9.148;2023-05-08T17:11:50;98516.47;;;16.75;100.00
28312;BME280;15572;48.810;9.148;2023-05-08T17:16:46;98512.44;;;16.77;100.00
28312;BME280;15572;48.810;9.148;2023-05-08T17:21:43;98515.34;;;16.82;100.00
28312;BME280;15572;48.810;9.148;2023-05-08T17:26:40;98515.25;;;16.89;100.00
28312;BME280;15572;48.810;9.148;2023-05-08T17:31:37;98514.41;;;16.89;100.00
28312;BME280;15572;48.810;9.148;2023-05-08T17:36:33;98519.22;;;16.93;100.00
28312;BME280;15572;48.810;9.148;2023-05-08T17:41:30;98521.56;;;16.90;100.00
28312;BME280;15572;48.810;9.148;2023-05-08T17:46:28;98527.50;;;16.87;100.00
28312;BME280;15572;48.810;9.148;2023-05-08T17:51:24;98528.56;;;16.86;100.00
28312;BME280;15572;48.810;9.148;2023-05-08T17:56:21;98544.44;;;16.77;100.00
28312;BME280;15572;48.810;9.148;2023-05-08T18:01:17;98540.09;;;16.69;100.00
28312;BME280;15572;48.810;9.148;2023-05-08T18:06:16;98545.66;;;16.56;100.00
28312;BME280;15572;48.810;9.148;2023-05-08T18:11:16;98534.88;;;16.43;100.00
28312;BME280;15572;48.810;9.148;2023-05-08T18:16:14;98540.34;;;16.43;100.00
28312;BME280;15572;48.810;9.148;2023-05-08T18:21:11;98540.13;;;16.45;100.00
28312;BME280;15572;48.810;9.148;2023-05-08T18:26:13;98542.59;;;16.46;100.00
28312;BME280;15572;48.810;9.148;2023-05-08T18:31:09;98539.03;;;16.46;100.00
28312;BME280;15572;48.810;9.148;2023-05-08T18:36:07;98539.72;;;16.41;100.00
28312;BME280;15572;48.810;9.148;2023-05-08T18:41:04;98537.66;;;16.36;100.00
28312;BME280;15572;48.810;9.148;2023-05-08T18:46:07;98547.22;;;16.27;100.00
28312;BME280;15572;48.810;9.148;2023-05-08T18:51:05;98548.78;;;16.17;100.00
28312;BME280;15572;48.810;9.148;2023-05-08T18:56:01;98538.66;;;15.99;100.00
28312;BME280;15572;48.810;9.148;2023-05-08T19:00:58;98547.72;;;15.93;100.00
28312;BME280;15572;48.810;9.148;2023-05-08T19:05:56;98545.41;;;15.96;100.00
28312;BME280;15572;48.810;9.148;2023-05-08T19:10:53;98544.09;;;15.99;100.00
28312;BME280;15572;48.810;9.148;2023-05-08T19:15:49;98549.78;;;15.97;100.00
28312;BME280;15572;48.810;9.148;2023-05-08T19:20:47;98551.69;;;15.97;100.00
28312;BME280;15572;48.810;9.148;2023-05-08T19:25:45;98547.50;;;15.94;100.00
28312;BME280;15572;48.810;9.148;2023-05-08T19:30:41;98546.50;;;15.89;100.00
28312;BME280;15572;48.810;9.148;2023-05-08T19:35:38;98537.94;;;15.85;100.00
28312;BME280;15572;48.810;9.148;2023-05-08T19:40:34;98538.59;;;15.81;100.00
28312;BME280;15572;48.810;9.148;2023-05-08T19:45:32;98540.75;;;15.72;100.00
28312;BME280;15572;48.810;9.148;2023-05-08T19:50:29;98542.06;;;15.63;100.00
28312;BME280;15572;48.810;9.148;2023-05-08T19:55:25;98539.00;;;15.53;100.00
28312;BME280;15572;48.810;9.148;2023-05-08T20:00:22;98538.16;;;15.46;100.00
28312;BME280;15572;48.810;9.148;2023-05-08T20:05:19;98542.81;;;15.39;100.00
28312;BME280;15572;48.810;9.148;2023-05-08T20:10:16;98543.09;;;15.31;100.00
28312;BME280;15572;48.810;9.148;2023-05-08T20:15:13;98543.56;;;15.21;100.00
28312;BME280;15572;48.810;9.148;2023-05-08T20:20:10;98555.75;;;15.12;100.00
28312;BME280;15572;48.810;9.148;2023-05-08T20:25:08;98556.22;;;14.96;100.00
28312;BME280;15572;48.810;9.148;2023-05-08T20:30:06;98549.56;;;14.85;100.00
28312;BME280;15572;48.810;9.148;2023-05-08T20:35:02;98559.41;;;14.86;100.00
28312;BME280;15572;48.810;9.148;2023-05-08T20:39:59;98555.84;;;14.86;100.00
28312;BME280;15572;48.810;9.148;2023-05-08T20:45:00;98550.19;;;14.87;100.00
28312;BME280;15572;48.810;9.148;2023-05-08T20:49:56;98545.78;;;14.86;100.00
28312;BME280;15572;48.810;9.148;2023-05-08T20:54:53;98539.50;;;14.86;100.00
28312;BME280;15572;48.810;9.148;2023-05-08T20:59:49;98538.66;;;14.85;100.00
28312;BME280;15572;48.810;9.148;2023-05-08T21:04:47;98533.66;;;14.82;100.00
28312;BME280;15572;48.810;9.148;2023-05-08T21:09:44;98530.16;;;14.68;100.00
28312;BME280;15572;48.810;9.148;2023-05-08T21:14:40;98528.28;;;14.62;100.00
28312;BME280;15572;48.810;9.148;2023-05-08T21:19:38;98526.78;;;14.66;100.00
28312;BME280;15572;48.810;9.148;2023-05-08T21:24:35;98532.03;;;14.68;100.00
28312;BME280;15572;48.810;9.148;2023-05-08T21:29:32;98527.44;;;14.62;100.00
28312;BME280;15572;48.810;9.148;2023-05-08T21:34:29;98521.81;;;14.57;100.00
28312;BME280;15572;48.810;9.148;2023-05-08T21:39:25;98527.25;;;14.57;100.00
28312;BME280;15572;48.810;9.148;2023-05-08T21:44:23;98525.78;;;14.54;100.00
28312;BME280;15572;48.810;9.148;2023-05-08T21:49:20;98518.69;;;14.47;100.00
28312;BME280;15572;48.810;9.148;2023-05-08T21:54:16;98530.00;;;14.44;100.00
28312;BME280;15572;48.810;9.148;2023-05-08T21:59:14;98527.72;;;14.41;100.00
28312;BME280;15572;48.810;9.148;2023-05-08T22:04:12;98536.50;;;14.36;100.00
28312;BME280;15572;48.810;9.148;2023-05-08T22:09:09;98525.59;;;14.36;100.00
28312;BME280;15572;48.810;9.148;2023-05-08T22:14:05;98530.63;;;14.39;100.00
28312;BME280;15572;48.810;9.148;2023-05-08T22:19:02;98532.09;;;14.35;100.00
28312;BME280;15572;48.810;9.148;2023-05-08T22:24:00;98527.91;;;14.39;100.00
28312;BME280;15572;48.810;9.148;2023-05-08T22:28:56;98518.91;;;14.39;100.00
28312;BME280;15572;48.810;9.148;2023-05-08T22:33:53;98514.94;;;14.41;100.00
28312;BME280;15572;48.810;9.148;2023-05-08T22:38:50;98518.06;;;14.45;100.00
28312;BME280;15572;48.810;9.148;2023-05-08T22:43:48;98514.09;;;14.41;100.00
28312;BME280;15572;48.810;9.148;2023-05-08T22:48:44;98500.47;;;14.41;100.00
28312;BME280;15572;48.810;9.148;2023-05-08T22:53:41;98496.06;;;14.40;100.00
28312;BME280;15572;48.810;9.148;2023-05-08T22:58:37;98486.84;;;14.34;100.00
28312;BME280;15572;48.810;9.148;2023-05-08T23:03:35;98475.94;;;14.27;100.00
28312;BME280;15572;48.810;9.148;2023-05-08T23:08:32;98465.50;;;14.24;100.00
28312;BME280;15572;48.810;9.148;2023-05-08T23:13:30;98452.28;;;14.21;100.00
28312;BME280;15572;48.810;9.148;2023-05-08T23:18:27;98450.84;;;14.19;100.00
28312;BME280;15572;48.810;9.148;2023-05-08T23:23:24;98443.94;;;14.16;100.00
28312;BME280;15572;48.810;9.148;2023-05-08T23:28:21;98437.88;;;14.14;100.00
28312;BME280;15572;48.810;9.148;2023-05-08T23:33:17;98438.34;;;14.05;100.00
28312;BME280;15572;48.810;9.148;2023-05-08T23:38:14;98444.63;;;13.99;100.00
28312;BME280;15572;48.810;9.148;2023-05-08T23:43:12;98437.50;;;13.91;100.00
28312;BME280;15572;48.810;9.148;2023-05-08T23:48:09;98431.22;;;13.84;100.00
28312;BME280;15572;48.810;9.148;2023-05-08T23:53:05;98428.94;;;13.81;100.00
28312;BME280;15572;48.810;9.148;2023-05-08T23:58:02;98426.84;;;13.76;100.00
